LiveATC.Net - Listen to live air traffic control over the Internet!


ICAO: KBJC  IATA: BJC   Airport: Rocky Mountain Metropolitan Airport
City: Denver   State/Province: Colorado
Country: United States   Continent: North America
KBJC METAR Weather: KBJC 011245Z 00000KT 10SM SCT002 BKN008 OVC110 16/16 A3019
KBJC Flight Activity (FlightAware)
KBJC Webcam: (Airport Webcams)
KBJC Airport Info   (AirNav) (iFlightPlanner)
KBJC VFR Sectional Chart   (iFlightPlanner) 
KBJC IFR Low Chart   (iFlightPlanner) 
KBJC Ground/Tower
Feed Status: DOWN
Last heard on: 2016-07-01 13:24:06 (0 days 0 hours 3 minutes ago)
KBJC Ground/Tower Audio Archives
FacilityFrequency
Metro Ground121.700
Metro Tower118.600

Feed sponsored by: Colorado Heli-Ops

NOTICE

Unauthorized use prohibited. See LiveATC.net Terms of Service


Find LiveATC Audio Streams


Airport/ARTCC Code

Frequency
(e.g., 124.400, 128.75)
Site-wide search

Browse LiveATC Feeds
LiveATC Coverage Map
Top 50 LiveATC Feeds
Bad Weather Areas

LiveATC FAQ
Offer a LiveATC Feed
Contact LiveATC.net
Press Inquiries

LiveATC on iPhone
LiveATC on Android

Windows Phone
Windows 8/10

LiveATC Mobile
(Mobile browser)

ATC Audio Archives
Interesting Recordings

LiveATC Forums


Home Page
About LiveATC.net
Make a Donation
LiveATC Store

Terms of Use
Privacy Policy

Canadian Air Freqs

AIRMETs/SIGMETs

FAA Airport Status
Nat'l Airspace Status
Arrival Demand Charts


Server Software By:
Icecast.org
Liquidsoap